Time;durP1;ratioP1;P1;durP2;ratioP2;P2;SDS_P1;SDS_P2;PMS_P1;PMS_P2;Temp;Humidity;BMP_temperature;BMP_pressure;BME280_temperature;BME280_humidity;BME280_pressure;Samples;Min_cycle;Max_cycle;Signal;HPM_P1;HPM_P2
2023/12/30 00:00:59;;;;;;;7.82;2.08;;;;;;;-144.73;100.00;54637.59;5046457;28;20029;-73
2023/12/30 00:03:25;;;;;;;13.65;2.10;;;;;;;-144.73;100.00;54641.69;5030211;28;20048;-73
2023/12/30 00:05:50;;;;;;;13.45;2.53;;;;;;;-144.73;100.00;54621.16;5029568;28;20025;-73
2023/12/30 00:08:16;;;;;;;15.23;1.90;;;;;;;-144.73;100.00;54678.63;5028985;28;20030;-75
2023/12/30 00:10:47;;;;;;;16.30;3.08;;;;;;;-144.73;100.00;54641.69;5029990;28;20083;-74
2023/12/30 00:13:14;;;;;;;9.20;1.92;;;;;;;-144.73;100.00;54654.00;5030917;28;20042;-75
2023/12/30 00:15:40;;;;;;;13.20;2.40;;;;;;;-144.73;100.00;54670.44;5027328;28;20037;-73
2023/12/30 00:18:05;;;;;;;14.68;2.38;;;;;;;-144.73;100.00;54654.00;5025972;28;20045;-75
2023/12/30 00:20:31;;;;;;;9.35;1.92;;;;;;;-144.73;100.00;54643.75;5026449;28;20061;-75
2023/12/30 00:22:56;;;;;;;16.70;2.30;;;;;;;-144.73;100.00;54670.44;5045268;28;20030;-75
2023/12/30 00:25:27;;;;;;;14.68;2.30;;;;;;;-144.73;100.00;54672.47;5028307;28;20032;-74
2023/12/30 00:27:53;;;;;;;9.13;2.13;;;;;;;-144.73;100.00;54658.13;5028966;28;20120;-73
2023/12/30 00:30:18;;;;;;;14.02;2.22;;;;;;;-144.73;100.00;54637.59;5028329;28;20027;-75
2023/12/30 00:32:43;;;;;;;11.48;1.95;;;;;;;-144.73;100.00;54670.44;5027112;28;20072;-73
2023/12/30 00:35:09;;;;;;;10.40;2.50;;;;;;;-144.73;100.00;54625.28;5044265;28;20025;-73
2023/12/30 00:37:35;;;;;;;16.52;2.95;;;;;;;-144.73;100.00;54625.28;5029325;28;20029;-74
2023/12/30 00:40:01;;;;;;;20.67;2.33;;;;;;;-144.73;100.00;54670.44;5026492;28;20021;-75
2023/12/30 00:42:29;;;;;;;17.92;2.65;;;;;;;-144.73;100.00;54658.13;5030078;28;20030;-74
2023/12/30 00:44:54;;;;;;;13.20;2.50;;;;;;;-144.73;100.00;54625.28;5029587;28;20025;-74
2023/12/30 00:47:22;;;;;;;11.88;2.67;;;;;;;-144.73;100.00;54641.69;5026794;28;20048;-75
2023/12/30 00:49:48;;;;;;;15.73;3.55;;;;;;;-144.73;100.00;54637.59;5028327;28;20033;-72
2023/12/30 00:52:13;;;;;;;12.30;2.22;;;;;;;-144.73;100.00;54654.00;5028665;28;20029;-73
2023/12/30 00:54:38;;;;;;;14.05;2.83;;;;;;;-144.73;100.00;54608.84;5027416;28;20029;-72
2023/12/30 00:57:07;;;;;;;14.57;2.78;;;;;;;-144.73;100.00;54641.69;5026580;28;20056;-73
2023/12/30 00:59:33;;;;;;;16.02;3.08;;;;;;;-144.73;100.00;54629.38;5029335;28;20036;-74
2023/12/30 01:01:59;;;;;;;12.27;2.72;;;;;;;-144.73;100.00;54678.63;5027653;28;20034;-74
2023/12/30 01:04:24;;;;;;;13.95;3.47;;;;;;;-144.73;100.00;54654.00;5029630;28;20029;-74
2023/12/30 01:06:54;;;;;;;14.43;2.75;;;;;;;-144.73;100.00;54670.44;5033975;28;20103;-76
2023/12/30 01:09:19;;;;;;;9.85;3.92;;;;;;;-144.73;100.00;54658.13;5031070;28;20399;-73
2023/12/30 01:11:45;;;;;;;17.35;3.63;;;;;;;-144.73;100.00;54656.06;5030720;28;20087;-73
2023/12/30 01:14:13;;;;;;;12.88;2.47;;;;;;;-144.73;100.00;54695.06;5032876;28;20026;-74
2023/12/30 01:16:39;;;;;;;8.80;2.80;;;;;;;-144.73;100.00;54662.22;5032218;28;20026;-74
2023/12/30 01:19:04;;;;;;;15.85;3.17;;;;;;;-144.73;100.00;54672.47;5033026;28;20112;-72
2023/12/30 01:21:29;;;;;;;8.27;2.60;;;;;;;-144.73;100.00;54641.69;5028219;28;20045;-75
2023/12/30 01:23:55;;;;;;;8.25;2.53;;;;;;;-144.73;100.00;54651.97;5032855;28;20062;-74
2023/12/30 01:26:20;;;;;;;10.75;3.15;;;;;;;-144.73;100.00;54629.38;5032067;28;20080;-71
2023/12/30 01:28:45;;;;;;;15.70;3.53;;;;;;;-144.73;100.00;54654.00;5028958;28;20023;-72
2023/12/30 01:31:11;;;;;;;17.90;3.65;;;;;;;-144.73;100.00;54674.53;5027677;28;20029;-72
2023/12/30 01:33:37;;;;;;;8.52;2.80;;;;;;;-144.73;100.00;54649.91;5021325;28;20033;-74
2023/12/30 01:36:03;;;;;;;7.20;2.45;;;;;;;-144.73;100.00;54690.97;5014596;28;20113;-72
2023/12/30 01:38:28;;;;;;;14.85;2.65;;;;;;;-144.73;100.00;54658.13;5029072;28;20038;-73
2023/12/30 01:40:57;;;;;;;18.20;2.63;;;;;;;-144.73;100.00;54631.44;5013343;28;20079;-75
2023/12/30 01:43:24;;;;;;;11.40;2.53;;;;;;;-144.73;100.00;54649.91;5021877;28;20034;-74
2023/12/30 01:45:52;;;;;;;6.75;2.22;;;;;;;-144.73;100.00;54637.59;5013442;28;20081;-74
2023/12/30 01:48:18;;;;;;;23.38;3.85;;;;;;;-144.73;100.00;54684.78;5028887;28;20034;-74
2023/12/30 01:50:43;;;;;;;6.78;1.98;;;;;;;-144.73;100.00;54658.13;5013268;28;20024;-74
2023/12/30 01:53:09;;;;;;;8.63;2.20;;;;;;;-144.73;100.00;54670.44;5012794;28;20038;-74
2023/12/30 01:55:37;;;;;;;10.07;2.15;;;;;;;-144.73;100.00;54637.59;5013036;28;20033;-75
2023/12/30 01:58:03;;;;;;;8.82;2.00;;;;;;;-144.73;100.00;54690.97;5012329;28;20085;-73
2023/12/30 02:00:31;;;;;;;14.10;2.10;;;;;;;-144.73;100.00;54662.22;5014606;28;20076;-74
2023/12/30 02:02:57;;;;;;;14.35;1.90;;;;;;;-144.73;100.00;54649.91;5013341;28;20117;-73
2023/12/30 02:05:22;;;;;;;7.03;2.15;;;;;;;-144.73;100.00;54641.69;5012559;28;20117;-73
2023/12/30 02:07:47;;;;;;;6.50;1.70;;;;;;;-144.73;100.00;54719.69;5012072;28;20049;-71
2023/12/30 02:10:13;;;;;;;11.80;2.58;;;;;;;-144.73;100.00;54649.91;5012667;28;20071;-73
2023/12/30 02:12:39;;;;;;;5.50;1.85;;;;;;;-144.73;100.00;54629.38;5012321;28;20044;-72
2023/12/30 02:15:12;;;;;;;7.22;1.77;;;;;;;-144.73;100.00;54645.78;5012387;28;20032;-71
2023/12/30 02:17:37;;;;;;;7.45;1.58;;;;;;;-144.73;100.00;54654.00;5012178;28;20034;-72
2023/12/30 02:20:04;;;;;;;8.65;1.60;;;;;;;-144.73;100.00;54629.38;5014102;28;20040;-72
2023/12/30 02:22:29;;;;;;;6.25;1.55;;;;;;;-144.73;100.00;54645.78;5012034;28;20034;-73
2023/12/30 02:24:59;;;;;;;16.15;1.98;;;;;;;-144.73;100.00;54695.06;5012606;28;20155;-74
2023/12/30 02:27:25;;;;;;;11.50;2.15;;;;;;;-144.73;100.00;54658.13;5013075;28;20030;-72
2023/12/30 02:29:51;;;;;;;10.73;1.90;;;;;;;-144.73;100.00;54649.91;5012287;28;20358;-74
2023/12/30 02:32:16;;;;;;;9.40;1.60;;;;;;;-144.73;100.00;54670.44;5017479;28;20033;-74
2023/12/30 02:34:47;;;;;;;4.50;1.95;;;;;;;-144.73;100.00;54637.59;5012209;28;20029;-72
2023/12/30 02:37:12;;;;;;;9.30;2.17;;;;;;;-144.73;100.00;54641.69;5011873;28;20103;-73
2023/12/30 02:39:40;;;;;;;10.13;1.65;;;;;;;-144.73;100.00;54662.22;5009632;28;20018;-74
2023/12/30 02:42:06;;;;;;;7.60;1.98;;;;;;;-144.73;100.00;54649.91;5019558;28;20026;-73
2023/12/30 02:44:31;;;;;;;5.70;1.50;;;;;;;-144.73;100.00;54695.06;5011537;28;20048;-73
2023/12/30 02:46:56;;;;;;;16.60;2.00;;;;;;;-144.73;100.00;54654.00;5011884;28;20378;-74
2023/12/30 02:49:25;;;;;;;13.60;2.00;;;;;;;-144.73;100.00;54588.31;5011573;28;20037;-73
2023/12/30 02:51:50;;;;;;;13.93;2.03;;;;;;;-144.73;100.00;54608.84;5021849;28;20030;-72
2023/12/30 02:54:15;;;;;;;9.10;1.70;;;;;;;-144.73;100.00;54625.28;5026235;28;20108;-74
2023/12/30 02:56:41;;;;;;;14.00;2.03;;;;;;;-144.73;100.00;54701.22;5025946;28;20034;-73
2023/12/30 02:59:09;;;;;;;13.80;1.85;;;;;;;-144.73;100.00;54662.22;5031345;28;20025;-71
2023/12/30 03:01:38;;;;;;;14.05;2.05;;;;;;;-144.73;100.00;54600.63;5026072;28;20477;-73
2023/12/30 03:04:03;;;;;;;18.20;1.85;;;;;;;-144.73;100.00;54629.38;5031717;28;20041;-74
2023/12/30 03:06:40;;;;;;;10.40;2.20;;;;;;;-144.73;100.00;54654.00;5026013;28;20017;-74
2023/12/30 03:09:05;;;;;;;4.65;1.33;;;;;;;-144.73;100.00;54637.59;5026085;28;20025;-73
2023/12/30 03:11:31;;;;;;;12.70;1.75;;;;;;;-144.73;100.00;54641.69;5031157;28;20037;-75
2023/12/30 03:13:56;;;;;;;13.63;1.80;;;;;;;-144.73;100.00;54617.06;5020833;28;20022;-72
2023/12/30 03:16:21;;;;;;;14.32;1.67;;;;;;;-144.73;100.00;54686.84;5012625;28;20099;-73
2023/12/30 03:18:47;;;;;;;13.38;2.28;;;;;;;-144.73;100.00;54639.63;5013540;28;20090;-73
2023/12/30 03:21:16;;;;;;;8.27;2.17;;;;;;;-144.73;100.00;54629.38;5008559;28;20030;-74
2023/12/30 03:23:42;;;;;;;16.92;2.20;;;;;;;-144.73;100.00;54672.47;5028544;28;20207;-73
2023/12/30 03:26:09;;;;;;;10.27;1.77;;;;;;;-144.73;100.00;54658.13;5028085;28;20013;-73
2023/12/30 03:28:35;;;;;;;10.63;1.23;;;;;;;-144.73;100.00;54678.63;5030166;28;20063;-73
2023/12/30 03:31:00;;;;;;;14.38;2.33;;;;;;;-144.73;100.00;54670.44;5028529;28;20071;-74
2023/12/30 03:33:26;;;;;;;16.58;2.08;;;;;;;-144.73;100.00;54633.47;5026270;28;20029;-74
2023/12/30 03:35:52;;;;;;;17.48;1.95;;;;;;;-144.73;100.00;54670.44;5031169;28;20025;-73
2023/12/30 03:38:18;;;;;;;19.02;2.60;;;;;;;-144.73;100.00;54612.97;5030646;28;20030;-75
2023/12/30 03:40:43;;;;;;;12.15;1.98;;;;;;;-144.73;100.00;54654.00;5031378;28;20087;-74
2023/12/30 03:43:08;;;;;;;18.98;3.25;;;;;;;-144.73;100.00;54662.22;5025764;28;20062;-71
2023/12/30 03:45:34;;;;;;;11.00;2.35;;;;;;;-144.73;100.00;54639.63;5028815;28;20029;-74
2023/12/30 03:48:00;;;;;;;19.45;2.47;;;;;;;-144.73;100.00;54625.28;5024506;28;20057;-74
2023/12/30 03:50:25;;;;;;;7.45;1.80;;;;;;;-144.73;100.00;54649.91;5024117;28;20049;-73
2023/12/30 03:52:51;;;;;;;26.38;2.95;;;;;;;-144.73;100.00;54662.22;5028028;28;20037;-74
2023/12/30 03:55:19;;;;;;;9.05;1.90;;;;;;;-144.73;100.00;54608.84;5028265;28;20021;-73
2023/12/30 03:57:45;;;;;;;21.35;2.47;;;;;;;-144.73;100.00;54660.16;5030391;28;20034;-73
2023/12/30 04:00:11;;;;;;;17.05;2.78;;;;;;;-144.73;100.00;54639.63;5031216;28;20025;-70
2023/12/30 04:02:36;;;;;;;17.77;2.75;;;;;;;-144.73;100.00;54654.00;5026851;28;20033;-72
2023/12/30 04:05:02;;;;;;;18.10;2.40;;;;;;;-144.73;100.00;54625.28;5031405;28;20043;-74
2023/12/30 04:07:28;;;;;;;19.70;2.95;;;;;;;-144.73;100.00;54629.38;5027577;28;20071;-73
2023/12/30 04:09:53;;;;;;;25.45;3.55;;;;;;;-144.73;100.00;54658.13;5031157;28;20029;-73
2023/12/30 04:12:20;;;;;;;14.60;2.20;;;;;;;-144.73;100.00;54617.06;5029947;28;20026;-73
2023/12/30 04:14:45;;;;;;;18.83;2.40;;;;;;;-144.73;100.00;54651.97;5026050;28;20017;-73
2023/12/30 04:17:11;;;;;;;18.42;2.35;;;;;;;-144.73;100.00;54658.13;5024020;28;20033;-73
2023/12/30 04:19:36;;;;;;;13.98;3.33;;;;;;;-144.73;100.00;54649.91;5019755;28;20044;-73
2023/12/30 04:22:01;;;;;;;16.15;2.78;;;;;;;-144.73;100.00;54643.75;5030919;28;20029;-72
2023/12/30 04:24:27;;;;;;;16.65;2.30;;;;;;;-144.73;100.00;54641.69;5031246;28;20029;-73
2023/12/30 04:26:52;;;;;;;14.73;2.33;;;;;;;-144.73;100.00;54662.22;5030691;28;20060;-75
2023/12/30 04:29:17;;;;;;;11.90;2.33;;;;;;;-144.73;100.00;54707.38;5031356;28;20051;-75
2023/12/30 04:31:43;;;;;;;10.27;1.83;;;;;;;-144.73;100.00;54649.91;5030514;28;20030;-74
2023/12/30 04:34:09;;;;;;;31.73;3.40;;;;;;;-144.73;100.00;54612.97;5031215;28;20021;-73
2023/12/30 04:36:34;;;;;;;17.65;2.60;;;;;;;-144.73;100.00;54670.44;5031715;28;20087;-74
2023/12/30 04:38:59;;;;;;;26.45;2.63;;;;;;;-144.73;100.00;54670.44;5032298;28;20025;-74
2023/12/30 04:41:25;;;;;;;18.10;3.28;;;;;;;-144.73;100.00;54629.38;5024287;28;20026;-73
2023/12/30 04:43:50;;;;;;;14.88;2.60;;;;;;;-144.73;100.00;54641.69;5016209;28;20028;-73
2023/12/30 04:46:15;;;;;;;13.75;2.38;;;;;;;-144.73;100.00;54625.28;5016151;28;20503;-73
2023/12/30 04:48:41;;;;;;;21.15;2.97;;;;;;;-144.73;100.00;54637.59;5015262;28;20029;-73
2023/12/30 04:51:06;;;;;;;21.08;2.33;;;;;;;-144.73;100.00;54637.59;5015340;28;20026;-73
2023/12/30 04:53:33;;;;;;;25.20;3.95;;;;;;;-144.73;100.00;54645.78;5014461;28;20085;-73
2023/12/30 04:55:58;;;;;;;24.75;3.13;;;;;;;-144.73;100.00;54645.78;5015125;28;20030;-72
2023/12/30 04:58:23;;;;;;;17.98;2.97;;;;;;;-144.73;100.00;54670.44;5014620;28;20037;-73
2023/12/30 05:00:49;;;;;;;21.58;3.72;;;;;;;-144.73;100.00;54662.22;5033839;28;20080;-74
2023/12/30 05:03:16;;;;;;;17.88;2.83;;;;;;;-144.73;100.00;54625.28;5034984;28;20046;-74
2023/12/30 05:05:42;;;;;;;25.83;2.95;;;;;;;-144.73;100.00;54678.63;5035588;28;20029;-74
2023/12/30 05:08:07;;;;;;;21.08;3.35;;;;;;;-144.73;100.00;54678.63;5034141;28;20091;-74
2023/12/30 05:10:33;;;;;;;29.05;4.25;;;;;;;-144.73;100.00;54633.47;5034589;28;20030;-73
2023/12/30 05:13:00;;;;;;;21.10;3.35;;;;;;;-144.73;100.00;54674.53;5033831;28;20034;-74
2023/12/30 05:15:25;;;;;;;28.10;3.30;;;;;;;-144.73;100.00;54695.06;5034521;28;20071;-75
2023/12/30 05:17:51;;;;;;;14.90;3.92;;;;;;;-144.73;100.00;54670.44;5031707;28;20029;-76
2023/12/30 05:20:17;;;;;;;17.95;2.55;;;;;;;-144.73;100.00;54637.59;5033480;28;20029;-74
2023/12/30 05:22:43;;;;;;;18.13;2.95;;;;;;;-144.73;100.00;54662.22;5028903;28;20038;-77
2023/12/30 05:25:09;;;;;;;25.58;3.08;;;;;;;-144.73;100.00;54651.97;5014228;28;20025;-75
2023/12/30 05:27:35;;;;;;;23.13;3.72;;;;;;;-144.73;100.00;54629.38;5013866;28;20040;-74
2023/12/30 05:30:00;;;;;;;18.33;2.85;;;;;;;-144.73;100.00;54654.00;5015041;28;20033;-75
2023/12/30 05:32:26;;;;;;;13.63;2.53;;;;;;;-144.73;100.00;54678.63;5013867;28;20026;-72
2023/12/30 05:34:51;;;;;;;20.13;3.00;;;;;;;-144.73;100.00;54674.53;5014784;28;20037;-73
2023/12/30 05:37:17;;;;;;;14.45;2.67;;;;;;;-144.73;100.00;54682.75;5013628;28;20108;-74
2023/12/30 05:39:42;;;;;;;22.75;2.75;;;;;;;-144.73;100.00;54678.63;5023377;28;20033;-74
2023/12/30 05:42:07;;;;;;;27.83;3.70;;;;;;;-144.73;100.00;54674.53;5034560;28;20033;-75
2023/12/30 05:44:33;;;;;;;34.55;3.88;;;;;;;-144.73;100.00;54662.22;5035105;28;20040;-73
2023/12/30 05:46:58;;;;;;;29.92;3.67;;;;;;;-144.73;100.00;54654.00;5034715;28;20029;-74
2023/12/30 05:49:23;;;;;;;16.23;2.38;;;;;;;-144.73;100.00;54641.69;5034032;28;20051;-73
2023/12/30 05:51:50;;;;;;;15.02;2.53;;;;;;;-144.73;100.00;54674.53;5032784;28;20079;-75
2023/12/30 05:54:15;;;;;;;15.95;2.42;;;;;;;-144.73;100.00;54649.91;5031668;28;20032;-75
2023/12/30 05:56:40;;;;;;;17.65;2.70;;;;;;;-144.73;100.00;54674.53;5031101;28;20046;-74
2023/12/30 05:59:06;;;;;;;18.90;2.92;;;;;;;-144.73;100.00;54637.59;5030221;28;20029;-73
2023/12/30 06:01:31;;;;;;;28.98;2.63;;;;;;;-144.73;100.00;54686.84;5025182;28;20037;-74
2023/12/30 06:03:58;;;;;;;28.13;3.13;;;;;;;-144.73;100.00;54641.69;5034780;28;20037;-74
2023/12/30 06:06:23;;;;;;;12.60;1.88;;;;;;;-144.73;100.00;54674.53;5033535;28;20045;-73
2023/12/30 06:08:49;;;;;;;18.60;2.83;;;;;;;-144.73;100.00;54676.59;5049962;28;20034;-73
2023/12/30 06:11:15;;;;;;;16.27;3.15;;;;;;;-144.73;100.00;54658.13;5020060;28;20040;-74
2023/12/30 06:13:41;;;;;;;22.05;3.38;;;;;;;-144.73;100.00;54670.44;5013643;28;20030;-74
2023/12/30 06:16:10;;;;;;;13.57;2.58;;;;;;;-144.73;100.00;54662.22;5013555;28;20036;-74
2023/12/30 06:18:36;;;;;;;18.88;2.80;;;;;;;-144.73;100.00;54654.00;5029543;28;20034;-72
2023/12/30 06:21:03;;;;;;;15.32;2.67;;;;;;;-144.73;100.00;54658.13;5013357;28;20026;-72
2023/12/30 06:23:30;;;;;;;16.98;2.33;;;;;;;-144.73;100.00;54678.63;5013005;28;20060;-72
2023/12/30 06:25:56;;;;;;;23.35;4.63;;;;;;;-144.73;100.00;54645.78;5013166;28;20025;-71
2023/12/30 06:28:24;;;;;;;22.42;3.65;;;;;;;-144.73;100.00;54674.53;5013895;28;20041;-71
2023/12/30 06:30:49;;;;;;;23.05;3.60;;;;;;;-144.73;100.00;54658.13;5032242;28;20026;-71
2023/12/30 06:33:16;;;;;;;21.98;2.47;;;;;;;-144.73;100.00;54645.78;5024503;28;20037;-73
2023/12/30 06:35:41;;;;;;;29.77;4.13;;;;;;;-144.73;100.00;54686.84;5018847;28;20021;-72
2023/12/30 06:38:06;;;;;;;23.85;3.60;;;;;;;-144.73;100.00;54637.59;5036800;28;20041;-73
2023/12/30 06:40:32;;;;;;;17.10;2.40;;;;;;;-144.73;100.00;54674.53;5025883;28;20025;-73
2023/12/30 06:42:57;;;;;;;19.73;2.60;;;;;;;-144.73;100.00;54641.69;5030658;28;20041;-74
2023/12/30 06:45:23;;;;;;;21.80;2.50;;;;;;;-144.73;100.00;54688.91;5024891;28;20122;-73
2023/12/30 06:47:48;;;;;;;24.38;2.85;;;;;;;-144.73;100.00;54637.59;5024106;28;20120;-73
2023/12/30 06:50:15;;;;;;;25.63;3.63;;;;;;;-144.73;100.00;54678.63;5031272;28;20029;-73
2023/12/30 06:52:43;;;;;;;21.60;3.70;;;;;;;-144.73;100.00;54649.91;5046273;28;20041;-73
2023/12/30 06:55:11;;;;;;;20.50;2.97;;;;;;;-144.73;100.00;54645.78;5032649;28;20039;-72
2023/12/30 06:57:36;;;;;;;14.90;2.25;;;;;;;-144.73;100.00;54629.38;5019990;28;20045;-72
2023/12/30 07:00:03;;;;;;;17.40;2.97;;;;;;;-144.73;100.00;54645.78;5026009;28;20432;-73
2023/12/30 07:02:28;;;;;;;34.55;4.07;;;;;;;-144.73;100.00;54701.22;5012740;28;20026;-73
2023/12/30 07:04:56;;;;;;;19.60;3.20;;;;;;;-144.73;100.00;54678.63;5028391;28;20236;-71
2023/12/30 07:07:21;;;;;;;17.48;2.97;;;;;;;-144.73;100.00;54682.75;5043032;28;20048;-73
2023/12/30 07:09:46;;;;;;;23.67;3.83;;;;;;;-144.73;100.00;54670.44;5027159;28;20038;-73
2023/12/30 07:12:13;;;;;;;15.65;2.72;;;;;;;-144.73;100.00;54649.91;5026278;28;20030;-72
2023/12/30 07:14:38;;;;;;;17.38;3.15;;;;;;;-144.73;100.00;54690.97;5013237;28;20080;-73
2023/12/30 07:17:04;;;;;;;20.52;3.25;;;;;;;-144.73;100.00;54695.06;5012034;28;20038;-72
2023/12/30 07:19:29;;;;;;;12.98;2.45;;;;;;;-144.73;100.00;54645.78;5012293;28;20034;-76
2023/12/30 07:21:54;;;;;;;30.25;3.25;;;;;;;-144.73;100.00;54612.97;5013117;28;20481;-73
2023/12/30 07:24:20;;;;;;;25.00;2.95;;;;;;;-144.73;100.00;54637.59;5012647;28;20465;-73
2023/12/30 07:26:45;;;;;;;20.85;3.22;;;;;;;-144.73;100.00;54629.38;5027870;28;20038;-75
2023/12/30 07:29:11;;;;;;;18.60;3.33;;;;;;;-144.73;100.00;54699.16;5011860;28;20041;-73
2023/12/30 07:31:37;;;;;;;24.30;3.85;;;;;;;-144.73;100.00;54658.13;5011836;28;20030;-74
2023/12/30 07:34:04;;;;;;;19.95;3.25;;;;;;;-144.73;100.00;54674.53;5025080;28;20097;-68
2023/12/30 07:36:30;;;;;;;23.60;3.25;;;;;;;-144.73;100.00;54654.00;5012807;28;20091;-67
2023/12/30 07:38:56;;;;;;;22.25;3.35;;;;;;;-144.73;100.00;54686.84;5013109;28;20052;-68
2023/12/30 07:41:22;;;;;;;21.10;2.95;;;;;;;-144.73;100.00;54649.91;5012654;28;20124;-67
2023/12/30 07:43:48;;;;;;;26.30;3.53;;;;;;;-144.73;100.00;54690.97;5011740;28;20029;-67
2023/12/30 07:46:14;;;;;;;11.88;2.50;;;;;;;-144.73;100.00;54621.16;5011535;28;20022;-67
2023/12/30 07:48:39;;;;;;;20.30;3.13;;;;;;;-144.73;100.00;54678.63;5011488;28;20065;-68
2023/12/30 07:51:05;;;;;;;21.23;2.95;;;;;;;-144.73;100.00;54654.00;5012129;28;20057;-68
2023/12/30 07:53:30;;;;;;;32.67;3.22;;;;;;;-144.73;100.00;54629.38;5011526;28;20033;-68
2023/12/30 07:55:56;;;;;;;23.48;3.67;;;;;;;-144.73;100.00;54637.59;5011338;28;20555;-68
2023/12/30 07:58:21;;;;;;;18.75;2.58;;;;;;;-144.73;100.00;54670.44;5010829;28;20045;-67
2023/12/30 08:00:46;;;;;;;19.15;3.53;;;;;;;-144.73;100.00;54676.59;5011486;28;20030;-67
2023/12/30 08:03:12;;;;;;;12.98;2.85;;;;;;;-144.73;100.00;54649.91;5027184;28;20108;-67
2023/12/30 08:05:39;;;;;;;28.10;3.72;;;;;;;-144.73;100.00;54699.16;5011703;28;20037;-68
2023/12/30 08:08:05;;;;;;;25.55;3.97;;;;;;;-144.73;100.00;54647.84;5012406;28;20149;-68
2023/12/30 08:10:32;;;;;;;16.92;2.60;;;;;;;-144.73;100.00;54682.75;5013311;28;20030;-70
2023/12/30 08:12:58;;;;;;;26.77;3.05;;;;;;;-144.73;100.00;54641.69;5010634;28;20036;-71
2023/12/30 08:15:24;;;;;;;27.35;3.60;;;;;;;-144.73;100.00;54670.44;5012994;28;20044;-71
2023/12/30 08:17:49;;;;;;;27.65;3.85;;;;;;;-144.73;100.00;54645.78;5010666;28;20121;-71
2023/12/30 08:20:15;;;;;;;22.80;3.13;;;;;;;-144.73;100.00;54678.63;5011745;28;20087;-70
2023/12/30 08:22:41;;;;;;;22.70;4.15;;;;;;;-144.73;100.00;54662.22;5010686;28;20030;-68
2023/12/30 08:25:10;;;;;;;26.55;4.20;;;;;;;-144.73;100.00;54678.63;5014168;28;20036;-70
2023/12/30 08:27:36;;;;;;;26.27;3.17;;;;;;;-144.73;100.00;54641.69;5011403;28;20117;-69
2023/12/30 08:30:02;;;;;;;19.15;4.00;;;;;;;-144.73;100.00;54678.63;5012116;28;20096;-70
2023/12/30 08:32:28;;;;;;;19.42;2.70;;;;;;;-144.73;100.00;54682.75;5012947;28;20041;-69
2023/12/30 08:34:54;;;;;;;19.38;3.05;;;;;;;-144.73;100.00;54633.47;5010669;28;20025;-69
2023/12/30 08:37:20;;;;;;;32.05;4.28;;;;;;;-144.73;100.00;54670.44;5009901;28;20036;-69
2023/12/30 08:39:48;;;;;;;25.58;2.97;;;;;;;-144.73;100.00;54637.59;5011155;28;20041;-70
2023/12/30 08:42:13;;;;;;;31.70;3.60;;;;;;;-144.73;100.00;54699.16;5039851;28;20046;-69
2023/12/30 08:44:43;;;;;;;32.67;4.50;;;;;;;-144.73;100.00;54660.16;5027792;28;20146;-69
2023/12/30 08:47:09;;;;;;;26.23;2.95;;;;;;;-144.73;100.00;54641.69;5025039;28;20096;-70
2023/12/30 08:49:35;;;;;;;31.25;4.45;;;;;;;-144.73;100.00;54641.69;5029359;28;20021;-70
2023/12/30 08:52:02;;;;;;;26.75;3.58;;;;;;;-144.73;100.00;54674.53;5026627;28;20057;-70
2023/12/30 08:54:27;;;;;;;23.38;4.40;;;;;;;-144.73;100.00;54654.00;5025414;28;20021;-70
2023/12/30 08:56:53;;;;;;;19.23;3.45;;;;;;;-144.73;100.00;54662.22;5025073;28;20030;-70
2023/12/30 08:59:20;;;;;;;22.13;3.28;;;;;;;-144.73;100.00;54654.00;5030984;28;20109;-70
2023/12/30 09:01:45;;;;;;;20.50;3.10;;;;;;;-144.73;100.00;54639.63;5028330;28;20133;-70
2023/12/30 09:04:11;;;;;;;22.02;3.15;;;;;;;-144.73;100.00;54645.78;5026731;28;20523;-70
2023/12/30 09:06:36;;;;;;;26.75;3.47;;;;;;;-144.73;100.00;54678.63;5029510;28;20156;-70
2023/12/30 09:09:04;;;;;;;24.10;3.15;;;;;;;-144.73;100.00;54705.31;5029638;28;20017;-70
2023/12/30 09:11:32;;;;;;;21.25;3.75;;;;;;;-144.73;100.00;54651.97;5028207;28;20025;-69
2023/12/30 09:13:58;;;;;;;28.77;4.07;;;;;;;-144.73;100.00;54674.53;5010729;28;20034;-70
2023/12/30 09:16:24;;;;;;;17.92;2.78;;;;;;;-144.73;100.00;54670.44;5010038;28;20037;-70
2023/12/30 09:18:49;;;;;;;28.38;3.85;;;;;;;-144.73;100.00;54670.44;5010476;28;20029;-71
2023/12/30 09:21:14;;;;;;;36.15;4.90;;;;;;;-144.73;100.00;54610.91;5009541;28;20063;-69
2023/12/30 09:23:40;;;;;;;31.27;5.35;;;;;;;-144.73;100.00;54703.28;5026820;28;20026;-70
2023/12/30 09:26:06;;;;;;;29.38;3.83;;;;;;;-144.73;100.00;54635.53;5030786;28;20021;-70
2023/12/30 09:28:32;;;;;;;26.50;3.72;;;;;;;-144.73;100.00;54672.47;5033542;28;20041;-70
2023/12/30 09:30:57;;;;;;;24.40;3.28;;;;;;;-144.73;100.00;54654.00;5031612;28;20025;-70
2023/12/30 09:33:23;;;;;;;22.58;3.10;;;;;;;-144.73;100.00;54649.91;5014126;28;20025;-70
2023/12/30 09:35:54;;;;;;;17.98;3.45;;;;;;;-144.73;100.00;54654.00;5018462;28;20034;-70
2023/12/30 09:38:20;;;;;;;23.35;4.15;;;;;;;-144.73;100.00;54645.78;5012987;28;20100;-70
2023/12/30 09:40:45;;;;;;;27.90;3.80;;;;;;;-144.73;100.00;54682.75;5013800;28;20060;-69
2023/12/30 09:43:14;;;;;;;26.80;3.80;;;;;;;-144.73;100.00;54633.47;5015858;28;20088;-71
2023/12/30 09:45:42;;;;;;;30.27;3.75;;;;;;;-144.73;100.00;54662.22;5010839;28;20053;-69
2023/12/30 09:48:09;;;;;;;36.60;4.00;;;;;;;-144.73;100.00;54641.69;5015571;28;20034;-70
2023/12/30 09:50:35;;;;;;;30.55;4.50;;;;;;;-144.73;100.00;54612.97;5014437;28;20056;-71
2023/12/30 09:53:00;;;;;;;24.42;3.15;;;;;;;-144.73;100.00;54645.78;5012597;28;20069;-73
2023/12/30 09:55:25;;;;;;;25.35;4.15;;;;;;;-144.73;100.00;54670.44;5013586;28;20029;-73
2023/12/30 09:57:51;;;;;;;15.20;2.90;;;;;;;-144.73;100.00;54678.63;5014303;28;20038;-72
2023/12/30 10:00:18;;;;;;;28.85;4.47;;;;;;;-144.73;100.00;54674.53;5012519;28;20052;-73
2023/12/30 10:02:44;;;;;;;29.23;4.13;;;;;;;-144.73;100.00;54658.13;5019735;28;20124;-73
2023/12/30 10:05:09;;;;;;;27.35;4.18;;;;;;;-144.73;100.00;54690.97;5031134;28;20060;-74
2023/12/30 10:07:35;;;;;;;37.97;3.50;;;;;;;-144.73;100.00;54678.63;5030451;28;20092;-74
2023/12/30 10:10:01;;;;;;;28.00;3.13;;;;;;;-144.73;100.00;54707.38;5030826;28;20029;-74
2023/12/30 10:12:26;;;;;;;26.48;3.63;;;;;;;-144.73;100.00;54658.13;5018560;28;20038;-74
2023/12/30 10:14:51;;;;;;;39.45;3.38;;;;;;;-144.73;100.00;54621.16;5029063;28;20032;-73
2023/12/30 10:17:18;;;;;;;24.08;3.85;;;;;;;-144.73;100.00;54707.38;5029252;28;20176;-74
2023/12/30 10:19:44;;;;;;;42.33;3.45;;;;;;;-144.73;100.00;54670.44;5026462;28;20373;-74
2023/12/30 10:22:09;;;;;;;31.63;4.03;;;;;;;-144.73;100.00;54674.53;5021748;28;20034;-74
2023/12/30 10:24:35;;;;;;;39.42;4.75;;;;;;;-144.73;100.00;54645.78;5039204;28;20033;-75
2023/12/30 10:27:04;;;;;;;30.77;4.38;;;;;;;-144.73;100.00;54649.91;5022243;28;20033;-74
2023/12/30 10:29:29;;;;;;;24.83;3.75;;;;;;;-144.73;100.00;54699.16;5021572;28;20042;-75
2023/12/30 10:32:03;;;;;;;21.60;3.40;;;;;;;-144.73;100.00;54662.22;5017154;28;20037;-75
2023/12/30 10:34:29;;;;;;;31.85;5.40;;;;;;;-144.73;100.00;54651.97;5032259;28;20025;-73
2023/12/30 10:36:55;;;;;;;36.97;4.35;;;;;;;-144.73;100.00;54627.31;5029481;28;20052;-73
2023/12/30 10:39:25;;;;;;;28.33;3.47;;;;;;;-144.73;100.00;54649.91;5032430;28;20036;-75
2023/12/30 10:41:50;;;;;;;29.35;3.63;;;;;;;-144.73;100.00;54688.91;5019713;28;20088;-74
2023/12/30 10:44:16;;;;;;;25.38;4.38;;;;;;;-144.73;100.00;54662.22;5015071;28;20029;-74
2023/12/30 10:46:47;;;;;;;25.55;3.42;;;;;;;-144.73;100.00;54654.00;4999905;28;20048;-75
2023/12/30 10:49:15;;;;;;;24.83;3.17;;;;;;;-144.73;100.00;54662.22;5029302;28;20022;-75
2023/12/30 10:51:43;;;;;;;24.00;3.53;;;;;;;-144.73;100.00;54703.28;5016974;28;20033;-74
2023/12/30 10:54:19;;;;;;;25.92;3.45;;;;;;;-144.73;100.00;54699.16;5027412;28;20029;-74
2023/12/30 10:56:51;;;;;;;24.13;4.05;;;;;;;-144.73;100.00;54649.91;5040090;28;20116;-73